WWA3241 PANC-PASI
Flight info
| Callsign | WWA3241 |
|---|---|
| Flight time | 1h 56m |
| Altitude | 25000 |
| Route | PANC TED J804R MDO J605 BKA HEXAB PASI |
| Aircraft | C130/H-V/N |
Departure
| Time | 2026-05-04 16:16 |
|---|---|
| Airport | Ted Stevens Anchorage International Airport (PANC) |
Arrival
| Time | 2026-05-04 18:12 |
|---|---|
| Airport | Sitka Rocky Gutierrez Airport (PASI) |
| Time | Latitude | Longitude | Altitude | Speed | Heading |
|---|---|---|---|---|---|
| 2026-05-04 15:49 | 61.17285 | -149.94725 | 168 ft | 0 kts | 0° |
| 2026-05-04 15:52 | 61.17286 | -149.94725 | 168 ft | 0 kts | 360° |
| 2026-05-04 15:54 | 61.17287 | -149.94725 | 168 ft | 0 kts | 360° |
| 2026-05-04 15:55 | 61.17287 | -149.94726 | 168 ft | 0 kts | 359° |
| 2026-05-04 15:57 | 61.17288 | -149.94726 | 168 ft | 0 kts | 359° |
| 2026-05-04 15:59 | 61.17289 | -149.94726 | 168 ft | 0 kts | 359° |
| 2026-05-04 16:00 | 61.17290 | -149.94726 | 168 ft | 0 kts | 359° |
| 2026-05-04 16:02 | 61.17264 | -149.94725 | 168 ft | 3 kts | 359° |
| 2026-05-04 16:03 | 61.17246 | -149.94724 | 168 ft | 3 kts | 359° |
| 2026-05-04 16:03 | 61.17225 | -149.94724 | 168 ft | 3 kts | 359° |
| 2026-05-04 16:03 | 61.17221 | -149.94724 | 168 ft | 0 kts | 359° |
| 2026-05-04 16:03 | 61.17225 | -149.94725 | 168 ft | 2 kts | 347° |
| 2026-05-04 16:04 | 61.17236 | -149.94766 | 168 ft | 6 kts | 259° |
| 2026-05-04 16:04 | 61.17111 | -149.94870 | 168 ft | 9 kts | 255° |
| 2026-05-04 16:04 | 61.17112 | -149.94974 | 168 ft | 6 kts | 276° |
| 2026-05-04 16:05 | 61.17115 | -149.95024 | 168 ft | 4 kts | 278° |
| 2026-05-04 16:05 | 61.17120 | -149.95132 | 168 ft | 10 kts | 272° |
| 2026-05-04 16:05 | 61.17118 | -149.95523 | 168 ft | 16 kts | 269° |
| 2026-05-04 16:06 | 61.17117 | -149.95733 | 168 ft | 16 kts | 269° |
| 2026-05-04 16:06 | 61.17118 | -149.96283 | 168 ft | 13 kts | 272° |
| 2026-05-04 16:07 | 61.17121 | -149.96509 | 168 ft | 13 kts | 271° |
| 2026-05-04 16:07 | 61.17120 | -149.97046 | 168 ft | 12 kts | 268° |
| 2026-05-04 16:08 | 61.17118 | -149.97223 | 168 ft | 12 kts | 268° |
| 2026-05-04 16:08 | 61.17117 | -149.97757 | 168 ft | 12 kts | 271° |
| 2026-05-04 16:09 | 61.17119 | -149.98084 | 168 ft | 12 kts | 270° |
| 2026-05-04 16:09 | 61.17120 | -149.98380 | 168 ft | 12 kts | 270° |
| 2026-05-04 16:10 | 61.17119 | -149.98715 | 168 ft | 12 kts | 269° |
| 2026-05-04 16:11 | 61.17116 | -149.99240 | 168 ft | 13 kts | 274° |
| 2026-05-04 16:11 | 61.17120 | -149.99423 | 168 ft | 13 kts | 270° |
| 2026-05-04 16:12 | 61.17118 | -149.99951 | 168 ft | 13 kts | 269° |
| 2026-05-04 16:12 | 61.17122 | -150.00510 | 168 ft | 13 kts | 276° |
| 2026-05-04 16:13 | 61.17093 | -150.00813 | 168 ft | 7 kts | 185° |
| 2026-05-04 16:13 | 61.17075 | -150.00804 | 168 ft | 1 kts | 161° |
| 2026-05-04 16:14 | 61.17020 | -150.00766 | 168 ft | 3 kts | 158° |
| 2026-05-04 16:14 | 61.16993 | -150.00720 | 168 ft | 3 kts | 113° |
| 2026-05-04 16:15 | 61.16973 | -149.96934 | 170 ft | 180 kts | 91° |
| 2026-05-04 16:16 | 61.16927 | -149.91940 | 1984 ft | 167 kts | 91° |
| 2026-05-04 16:16 | 61.14210 | -149.83907 | 2828 ft | 261 kts | 143° |
| 2026-05-04 16:17 | 61.11219 | -149.79615 | 3487 ft | 285 kts | 143° |
| 2026-05-04 16:18 | 61.06696 | -149.72026 | 4563 ft | 305 kts | 138° |
| 2026-05-04 16:18 | 61.05128 | -149.69042 | 4936 ft | 311 kts | 136° |
| 2026-05-04 16:19 | 61.00617 | -149.59862 | 6012 ft | 312 kts | 135° |
| 2026-05-04 16:19 | 60.97635 | -149.53440 | 6759 ft | 310 kts | 134° |
| 2026-05-04 16:20 | 60.93397 | -149.44171 | 7839 ft | 308 kts | 134° |
| 2026-05-04 16:20 | 60.90467 | -149.37746 | 8588 ft | 307 kts | 134° |
| 2026-05-04 16:21 | 60.86262 | -149.28521 | 9666 ft | 307 kts | 135° |
| 2026-05-04 16:22 | 60.83481 | -149.22457 | 10378 ft | 308 kts | 136° |
| 2026-05-04 16:22 | 60.79044 | -149.12851 | 11496 ft | 310 kts | 137° |
| 2026-05-04 16:23 | 60.74799 | -149.03668 | 12551 ft | 311 kts | 138° |
| 2026-05-04 16:24 | 60.69002 | -148.91180 | 14010 ft | 311 kts | 139° |
| 2026-05-04 16:25 | 60.66179 | -148.85144 | 14718 ft | 311 kts | 140° |
| 2026-05-04 16:26 | 60.60393 | -148.72857 | 16163 ft | 310 kts | 140° |
| 2026-05-04 16:26 | 60.55928 | -148.63378 | 17285 ft | 309 kts | 141° |
| 2026-05-04 16:27 | 60.53132 | -148.57476 | 17987 ft | 308 kts | 141° |
| 2026-05-04 16:28 | 60.48877 | -148.48528 | 19059 ft | 307 kts | 141° |
| 2026-05-04 16:28 | 60.44433 | -148.39215 | 20182 ft | 305 kts | 141° |
| 2026-05-04 16:29 | 60.38539 | -148.26917 | 21678 ft | 303 kts | 141° |
| 2026-05-04 16:30 | 60.34166 | -148.17833 | 22794 ft | 301 kts | 141° |
| 2026-05-04 16:31 | 60.31251 | -148.11803 | 23540 ft | 300 kts | 141° |
| 2026-05-04 16:31 | 60.26898 | -148.02819 | 24658 ft | 297 kts | 141° |
| 2026-05-04 16:32 | 60.22709 | -147.94212 | 25095 ft | 304 kts | 142° |
| 2026-05-04 16:33 | 60.19898 | -147.88477 | 25095 ft | 307 kts | 142° |
| 2026-05-04 16:33 | 60.16898 | -147.82364 | 25123 ft | 308 kts | 142° |
| 2026-05-04 16:34 | 60.14068 | -147.76610 | 25141 ft | 308 kts | 142° |
| 2026-05-04 16:34 | 60.12554 | -147.73537 | 25143 ft | 309 kts | 142° |
| 2026-05-04 16:35 | 60.08216 | -147.64753 | 25139 ft | 310 kts | 142° |
| 2026-05-04 16:35 | 60.03636 | -147.55508 | 25140 ft | 312 kts | 142° |
| 2026-05-04 16:36 | 60.02115 | -147.52447 | 25140 ft | 312 kts | 142° |
| 2026-05-04 16:36 | 59.99051 | -147.46284 | 25142 ft | 313 kts | 142° |
| 2026-05-04 16:37 | 59.96157 | -147.40483 | 25141 ft | 313 kts | 142° |
| 2026-05-04 16:37 | 59.94639 | -147.37450 | 25141 ft | 313 kts | 142° |
| 2026-05-04 16:37 | 59.91556 | -147.31299 | 25141 ft | 313 kts | 142° |
| 2026-05-04 16:38 | 59.88674 | -147.25565 | 25141 ft | 313 kts | 142° |
| 2026-05-04 16:39 | 59.84251 | -147.16796 | 25140 ft | 313 kts | 142° |
| 2026-05-04 16:39 | 59.81170 | -147.10706 | 25141 ft | 313 kts | 142° |
| 2026-05-04 16:40 | 59.78286 | -147.05021 | 25140 ft | 313 kts | 142° |
| 2026-05-04 16:40 | 59.75189 | -146.98932 | 25139 ft | 313 kts | 143° |
| 2026-05-04 16:41 | 59.72315 | -146.93281 | 25138 ft | 314 kts | 143° |
| 2026-05-04 16:41 | 59.67657 | -146.84181 | 25137 ft | 314 kts | 143° |
| 2026-05-04 16:42 | 59.63176 | -146.75466 | 25134 ft | 314 kts | 143° |
| 2026-05-04 16:43 | 59.60211 | -146.69718 | 25134 ft | 315 kts | 143° |
| 2026-05-04 16:43 | 59.57114 | -146.63728 | 25134 ft | 315 kts | 143° |
| 2026-05-04 16:43 | 59.55536 | -146.60680 | 25134 ft | 315 kts | 143° |
| 2026-05-04 16:44 | 59.49435 | -146.48933 | 25134 ft | 316 kts | 143° |
| 2026-05-04 16:45 | 59.46287 | -146.42895 | 25133 ft | 316 kts | 143° |
| 2026-05-04 16:46 | 59.42424 | -146.32821 | 25135 ft | 330 kts | 126° |
| 2026-05-04 16:46 | 59.40475 | -146.24514 | 25134 ft | 335 kts | 121° |
| 2026-05-04 16:47 | 59.38880 | -146.16584 | 25134 ft | 337 kts | 119° |
| 2026-05-04 16:47 | 59.37247 | -146.07962 | 25134 ft | 338 kts | 118° |
| 2026-05-04 16:48 | 59.34942 | -145.95490 | 25134 ft | 339 kts | 118° |
| 2026-05-04 16:48 | 59.34135 | -145.91111 | 25134 ft | 339 kts | 118° |
| 2026-05-04 16:49 | 59.32633 | -145.83000 | 25135 ft | 340 kts | 118° |
| 2026-05-04 16:49 | 59.31009 | -145.74249 | 25136 ft | 340 kts | 118° |
| 2026-05-04 16:50 | 59.29405 | -145.65661 | 25137 ft | 340 kts | 118° |
| 2026-05-04 16:50 | 59.27773 | -145.56980 | 25137 ft | 340 kts | 118° |
| 2026-05-04 16:51 | 59.26230 | -145.48806 | 25138 ft | 340 kts | 118° |
| 2026-05-04 16:51 | 59.25407 | -145.44461 | 25133 ft | 340 kts | 118° |
| 2026-05-04 16:51 | 59.23756 | -145.35769 | 25129 ft | 341 kts | 118° |
| 2026-05-04 16:52 | 59.22212 | -145.27664 | 25128 ft | 341 kts | 118° |
| 2026-05-04 16:52 | 59.21390 | -145.23344 | 25127 ft | 341 kts | 119° |
| 2026-05-04 16:53 | 59.19837 | -145.15247 | 25127 ft | 341 kts | 119° |
| 2026-05-04 16:53 | 59.17327 | -145.02242 | 25125 ft | 342 kts | 119° |
| 2026-05-04 16:54 | 59.16599 | -144.98468 | 25124 ft | 342 kts | 119° |
| 2026-05-04 16:55 | 59.13328 | -144.81654 | 25136 ft | 342 kts | 119° |
| 2026-05-04 16:55 | 59.11639 | -144.73042 | 25158 ft | 341 kts | 120° |
| 2026-05-04 16:56 | 59.09936 | -144.64413 | 25161 ft | 342 kts | 120° |
| 2026-05-04 16:56 | 59.07377 | -144.51474 | 25160 ft | 343 kts | 120° |
| 2026-05-04 16:57 | 59.06888 | -144.49016 | 25159 ft | 343 kts | 120° |
| 2026-05-04 16:57 | 59.05173 | -144.40438 | 25159 ft | 343 kts | 120° |
| 2026-05-04 16:58 | 59.02696 | -144.28090 | 25144 ft | 344 kts | 120° |
| 2026-05-04 16:58 | 59.01828 | -144.23758 | 25142 ft | 344 kts | 120° |
| 2026-05-04 16:59 | 59.00176 | -144.15561 | 25152 ft | 344 kts | 120° |
| 2026-05-04 17:00 | 58.96799 | -143.98938 | 25171 ft | 344 kts | 120° |
| 2026-05-04 17:00 | 58.94147 | -143.85993 | 25173 ft | 345 kts | 120° |
| 2026-05-04 17:01 | 58.92490 | -143.77946 | 25174 ft | 346 kts | 120° |
| 2026-05-04 17:01 | 58.90709 | -143.69304 | 25175 ft | 346 kts | 120° |
| 2026-05-04 17:02 | 58.89048 | -143.61274 | 25176 ft | 347 kts | 120° |
| 2026-05-04 17:02 | 58.87255 | -143.52658 | 25177 ft | 347 kts | 120° |
| 2026-05-04 17:03 | 58.86480 | -143.48952 | 25178 ft | 347 kts | 120° |
| 2026-05-04 17:03 | 58.85572 | -143.44621 | 25178 ft | 347 kts | 120° |
| 2026-05-04 17:03 | 58.83756 | -143.35975 | 25180 ft | 348 kts | 120° |
| 2026-05-04 17:04 | 58.82044 | -143.27856 | 25181 ft | 348 kts | 120° |
| 2026-05-04 17:04 | 58.80250 | -143.19250 | 25179 ft | 351 kts | 117° |
| 2026-05-04 17:05 | 58.79473 | -143.10436 | 25186 ft | 363 kts | 102° |
| 2026-05-04 17:05 | 58.79298 | -143.00576 | 25186 ft | 367 kts | 97° |
| 2026-05-04 17:06 | 58.79284 | -142.90788 | 25187 ft | 368 kts | 97° |
| 2026-05-04 17:06 | 58.79288 | -142.85860 | 25187 ft | 368 kts | 97° |
| 2026-05-04 17:07 | 58.79289 | -142.76706 | 25189 ft | 368 kts | 97° |
| 2026-05-04 17:07 | 58.79285 | -142.73409 | 25189 ft | 368 kts | 97° |
| 2026-05-04 17:07 | 58.79268 | -142.66841 | 25190 ft | 368 kts | 97° |
| 2026-05-04 17:07 | 58.79247 | -142.61862 | 25191 ft | 369 kts | 97° |
| 2026-05-04 17:08 | 58.79223 | -142.57551 | 25192 ft | 369 kts | 97° |
| 2026-05-04 17:08 | 58.79148 | -142.47708 | 25194 ft | 369 kts | 98° |
| 2026-05-04 17:08 | 58.79100 | -142.42817 | 25194 ft | 369 kts | 98° |
| 2026-05-04 17:09 | 58.79050 | -142.38430 | 25195 ft | 369 kts | 98° |
| 2026-05-04 17:09 | 58.78989 | -142.33546 | 25196 ft | 369 kts | 98° |
| 2026-05-04 17:09 | 58.78917 | -142.28533 | 25197 ft | 369 kts | 98° |
| 2026-05-04 17:10 | 58.78768 | -142.19447 | 25198 ft | 369 kts | 99° |
| 2026-05-04 17:10 | 58.78470 | -142.04676 | 25200 ft | 369 kts | 99° |
| 2026-05-04 17:11 | 58.78369 | -142.00301 | 25201 ft | 369 kts | 99° |
| 2026-05-04 17:11 | 58.78245 | -141.95364 | 25201 ft | 369 kts | 99° |
| 2026-05-04 17:11 | 58.77981 | -141.85507 | 25203 ft | 370 kts | 99° |
| 2026-05-04 17:12 | 58.77858 | -141.81256 | 25204 ft | 370 kts | 100° |
| 2026-05-04 17:12 | 58.77547 | -141.71406 | 25205 ft | 370 kts | 100° |
| 2026-05-04 17:13 | 58.77041 | -141.57219 | 25202 ft | 371 kts | 101° |
| 2026-05-04 17:14 | 58.76466 | -141.43011 | 25203 ft | 371 kts | 101° |
| 2026-05-04 17:14 | 58.76253 | -141.38058 | 25204 ft | 371 kts | 101° |
| 2026-05-04 17:14 | 58.75798 | -141.28142 | 25205 ft | 371 kts | 102° |
| 2026-05-04 17:15 | 58.75585 | -141.23773 | 25206 ft | 371 kts | 102° |
| 2026-05-04 17:15 | 58.75083 | -141.13908 | 25207 ft | 372 kts | 102° |
| 2026-05-04 17:16 | 58.74582 | -141.04599 | 25208 ft | 372 kts | 102° |
| 2026-05-04 17:16 | 58.73709 | -140.89702 | 25210 ft | 372 kts | 103° |
| 2026-05-04 17:17 | 58.73442 | -140.85420 | 25210 ft | 373 kts | 103° |
| 2026-05-04 17:17 | 58.72463 | -140.70605 | 25210 ft | 373 kts | 104° |
| 2026-05-04 17:18 | 58.72163 | -140.66297 | 25210 ft | 373 kts | 104° |
| 2026-05-04 17:18 | 58.71444 | -140.56390 | 25211 ft | 373 kts | 104° |
| 2026-05-04 17:19 | 58.70741 | -140.47150 | 25211 ft | 373 kts | 104° |
| 2026-05-04 17:19 | 58.69951 | -140.37250 | 25212 ft | 373 kts | 105° |
| 2026-05-04 17:20 | 58.69177 | -140.27989 | 25213 ft | 373 kts | 105° |
| 2026-05-04 17:20 | 58.68322 | -140.18217 | 25213 ft | 373 kts | 106° |
| 2026-05-04 17:20 | 58.67875 | -140.13281 | 25213 ft | 373 kts | 106° |
| 2026-05-04 17:21 | 58.67025 | -140.04185 | 25214 ft | 373 kts | 107° |
| 2026-05-04 17:21 | 58.66063 | -139.94334 | 25213 ft | 373 kts | 107° |
| 2026-05-04 17:22 | 58.65636 | -139.90092 | 25214 ft | 373 kts | 107° |
| 2026-05-04 17:22 | 58.65132 | -139.85180 | 25215 ft | 373 kts | 107° |
| 2026-05-04 17:23 | 58.63636 | -139.71176 | 25215 ft | 374 kts | 108° |
| 2026-05-04 17:23 | 58.63092 | -139.66275 | 25215 ft | 374 kts | 108° |
| 2026-05-04 17:23 | 58.61986 | -139.56608 | 25212 ft | 374 kts | 108° |
| 2026-05-04 17:24 | 58.61481 | -139.52319 | 25212 ft | 374 kts | 109° |
| 2026-05-04 17:24 | 58.59699 | -139.37670 | 25212 ft | 375 kts | 109° |
| 2026-05-04 17:25 | 58.59168 | -139.33474 | 25212 ft | 375 kts | 109° |
| 2026-05-04 17:25 | 58.57910 | -139.23804 | 25212 ft | 375 kts | 110° |
| 2026-05-04 17:26 | 58.56711 | -139.14915 | 25212 ft | 375 kts | 110° |
| 2026-05-04 17:26 | 58.54675 | -139.00439 | 25218 ft | 376 kts | 111° |
| 2026-05-04 17:27 | 58.53416 | -138.91848 | 25227 ft | 376 kts | 111° |
| 2026-05-04 17:27 | 58.51957 | -138.82252 | 25226 ft | 376 kts | 112° |
| 2026-05-04 17:28 | 58.50546 | -138.73280 | 25224 ft | 376 kts | 112° |
| 2026-05-04 17:29 | 58.48324 | -138.59718 | 25226 ft | 377 kts | 113° |
| 2026-05-04 17:29 | 58.45860 | -138.45413 | 25227 ft | 377 kts | 114° |
| 2026-05-04 17:30 | 58.43405 | -138.31854 | 25232 ft | 377 kts | 115° |
| 2026-05-04 17:31 | 58.41770 | -138.23168 | 25236 ft | 376 kts | 116° |
| 2026-05-04 17:31 | 58.39030 | -138.09164 | 25238 ft | 373 kts | 117° |
| 2026-05-04 17:32 | 58.37222 | -138.00452 | 24571 ft | 375 kts | 119° |
| 2026-05-04 17:33 | 58.33971 | -137.88045 | 23733 ft | 367 kts | 126° |
| 2026-05-04 17:33 | 58.32649 | -137.83929 | 23434 ft | 364 kts | 128° |
| 2026-05-04 17:34 | 58.28269 | -137.72293 | 22532 ft | 356 kts | 134° |
| 2026-05-04 17:34 | 58.26725 | -137.68639 | 22233 ft | 354 kts | 135° |
| 2026-05-04 17:35 | 58.22145 | -137.58534 | 21375 ft | 352 kts | 137° |
| 2026-05-04 17:35 | 58.18875 | -137.51720 | 20780 ft | 351 kts | 137° |
| 2026-05-04 17:35 | 58.17206 | -137.48320 | 20479 ft | 350 kts | 138° |
| 2026-05-04 17:36 | 58.15782 | -137.45445 | 20223 ft | 350 kts | 138° |
| 2026-05-04 17:36 | 58.14109 | -137.42095 | 19924 ft | 350 kts | 138° |
| 2026-05-04 17:36 | 58.12434 | -137.38760 | 19625 ft | 350 kts | 138° |
| 2026-05-04 17:36 | 58.10770 | -137.35466 | 19328 ft | 350 kts | 138° |
| 2026-05-04 17:37 | 58.09315 | -137.32597 | 19069 ft | 349 kts | 138° |
| 2026-05-04 17:37 | 58.07661 | -137.29348 | 18775 ft | 349 kts | 137° |
| 2026-05-04 17:37 | 58.05977 | -137.26040 | 18476 ft | 349 kts | 137° |
| 2026-05-04 17:37 | 58.04282 | -137.22721 | 18175 ft | 349 kts | 137° |
| 2026-05-04 17:38 | 58.02842 | -137.19908 | 17919 ft | 349 kts | 137° |
| 2026-05-04 17:38 | 58.01155 | -137.16621 | 17620 ft | 349 kts | 137° |
| 2026-05-04 17:38 | 57.99462 | -137.13329 | 17321 ft | 349 kts | 137° |
| 2026-05-04 17:38 | 57.97774 | -137.10054 | 17022 ft | 348 kts | 137° |
| 2026-05-04 17:39 | 57.94619 | -137.03946 | 16461 ft | 348 kts | 137° |
| 2026-05-04 17:39 | 57.92933 | -137.00690 | 16163 ft | 348 kts | 137° |
| 2026-05-04 17:39 | 57.91258 | -136.97448 | 15866 ft | 349 kts | 137° |
| 2026-05-04 17:40 | 57.89786 | -136.94608 | 15605 ft | 349 kts | 137° |
| 2026-05-04 17:40 | 57.88085 | -136.91336 | 15305 ft | 349 kts | 137° |
| 2026-05-04 17:40 | 57.86391 | -136.88085 | 15007 ft | 350 kts | 137° |
| 2026-05-04 17:40 | 57.84691 | -136.84825 | 14707 ft | 350 kts | 137° |
| 2026-05-04 17:41 | 57.83244 | -136.82054 | 14454 ft | 351 kts | 137° |
| 2026-05-04 17:41 | 57.81521 | -136.78762 | 14152 ft | 351 kts | 137° |
| 2026-05-04 17:41 | 57.79826 | -136.75528 | 13855 ft | 351 kts | 137° |
| 2026-05-04 17:41 | 57.78112 | -136.72261 | 13555 ft | 351 kts | 136° |
| 2026-05-04 17:42 | 57.76639 | -136.69455 | 13298 ft | 352 kts | 136° |
| 2026-05-04 17:42 | 57.74919 | -136.66186 | 12998 ft | 352 kts | 136° |
| 2026-05-04 17:42 | 57.73207 | -136.62934 | 12699 ft | 352 kts | 136° |
| 2026-05-04 17:42 | 57.71482 | -136.59665 | 12400 ft | 352 kts | 136° |
| 2026-05-04 17:43 | 57.69998 | -136.56847 | 12141 ft | 352 kts | 136° |
| 2026-05-04 17:43 | 57.68287 | -136.53606 | 11842 ft | 352 kts | 136° |
| 2026-05-04 17:43 | 57.66556 | -136.50333 | 11541 ft | 353 kts | 136° |
| 2026-05-04 17:43 | 57.64851 | -136.47117 | 11245 ft | 353 kts | 136° |
| 2026-05-04 17:44 | 57.63355 | -136.44299 | 10986 ft | 354 kts | 136° |
| 2026-05-04 17:44 | 57.61612 | -136.41022 | 10685 ft | 354 kts | 136° |
| 2026-05-04 17:44 | 57.59880 | -136.37768 | 10418 ft | 353 kts | 136° |
| 2026-05-04 17:44 | 57.58151 | -136.34518 | 10289 ft | 351 kts | 136° |
| 2026-05-04 17:45 | 57.57330 | -136.32977 | 10254 ft | 351 kts | 136° |
| 2026-05-04 17:45 | 57.54946 | -136.28513 | 10219 ft | 349 kts | 136° |
| 2026-05-04 17:45 | 57.53801 | -136.26373 | 10215 ft | 349 kts | 136° |
| 2026-05-04 17:45 | 57.52092 | -136.23186 | 10080 ft | 352 kts | 136° |
| 2026-05-04 17:46 | 57.50681 | -136.20554 | 9713 ft | 356 kts | 136° |
| 2026-05-04 17:46 | 57.48904 | -136.17243 | 9280 ft | 334 kts | 136° |
| 2026-05-04 17:46 | 57.47299 | -136.14267 | 8831 ft | 313 kts | 136° |
| 2026-05-04 17:46 | 57.45821 | -136.11535 | 8381 ft | 288 kts | 136° |
| 2026-05-04 17:47 | 57.44635 | -136.09338 | 7985 ft | 268 kts | 136° |
| 2026-05-04 17:47 | 57.43373 | -136.06999 | 7528 ft | 247 kts | 136° |
| 2026-05-04 17:47 | 57.42210 | -136.04847 | 7075 ft | 231 kts | 136° |
| 2026-05-04 17:47 | 57.41086 | -136.02832 | 6619 ft | 218 kts | 139° |
| 2026-05-04 17:48 | 57.40108 | -136.01273 | 6230 ft | 210 kts | 141° |
| 2026-05-04 17:48 | 57.39008 | -135.99581 | 5780 ft | 202 kts | 141° |
| 2026-05-04 17:48 | 57.37960 | -135.97941 | 5338 ft | 196 kts | 140° |
| 2026-05-04 17:48 | 57.36950 | -135.96289 | 4897 ft | 191 kts | 138° |
| 2026-05-04 17:49 | 57.36189 | -135.94995 | 4546 ft | 187 kts | 137° |
| 2026-05-04 17:49 | 57.35236 | -135.93322 | 4096 ft | 184 kts | 136° |
| 2026-05-04 17:49 | 57.34336 | -135.91695 | 3750 ft | 175 kts | 135° |
| 2026-05-04 17:49 | 57.33526 | -135.90203 | 3645 ft | 154 kts | 134° |
| 2026-05-04 17:50 | 57.32947 | -135.89126 | 3419 ft | 151 kts | 134° |
| 2026-05-04 17:50 | 57.32182 | -135.87697 | 2934 ft | 159 kts | 133° |
| 2026-05-04 17:50 | 57.31411 | -135.86247 | 2617 ft | 155 kts | 133° |
| 2026-05-04 17:50 | 57.30654 | -135.84818 | 2298 ft | 159 kts | 133° |
| 2026-05-04 17:51 | 57.30036 | -135.83646 | 2052 ft | 170 kts | 133° |
| 2026-05-04 17:51 | 57.29187 | -135.82034 | 2065 ft | 165 kts | 133° |
| 2026-05-04 17:51 | 57.28411 | -135.80567 | 2176 ft | 161 kts | 133° |
| 2026-05-04 17:51 | 57.27607 | -135.79051 | 2138 ft | 169 kts | 133° |
| 2026-05-04 17:52 | 57.26975 | -135.77848 | 2393 ft | 177 kts | 134° |
| 2026-05-04 17:52 | 57.26014 | -135.76045 | 2932 ft | 200 kts | 133° |
| 2026-05-04 17:52 | 57.25025 | -135.74188 | 3596 ft | 201 kts | 134° |
| 2026-05-04 17:52 | 57.24032 | -135.72331 | 3524 ft | 202 kts | 134° |
| 2026-05-04 17:53 | 57.23293 | -135.70952 | 3564 ft | 199 kts | 134° |
| 2026-05-04 17:53 | 57.22297 | -135.69087 | 3584 ft | 194 kts | 134° |
| 2026-05-04 17:53 | 57.21374 | -135.67367 | 3573 ft | 184 kts | 134° |
| 2026-05-04 17:53 | 57.20494 | -135.65731 | 3561 ft | 175 kts | 134° |
| 2026-05-04 17:54 | 57.19767 | -135.64382 | 3566 ft | 170 kts | 134° |
| 2026-05-04 17:54 | 57.18939 | -135.62840 | 3537 ft | 168 kts | 134° |
| 2026-05-04 17:54 | 57.18122 | -135.61315 | 3434 ft | 170 kts | 134° |
| 2026-05-04 17:54 | 57.17264 | -135.59715 | 3151 ft | 182 kts | 133° |
| 2026-05-04 17:55 | 57.16485 | -135.58258 | 2917 ft | 187 kts | 133° |
| 2026-05-04 17:55 | 57.15597 | -135.56597 | 2656 ft | 174 kts | 133° |
| 2026-05-04 17:55 | 57.14774 | -135.55054 | 2350 ft | 163 kts | 133° |
| 2026-05-04 17:55 | 57.14017 | -135.53633 | 2121 ft | 153 kts | 133° |
| 2026-05-04 17:56 | 57.13376 | -135.52431 | 1904 ft | 149 kts | 133° |
| 2026-05-04 17:56 | 57.12648 | -135.51068 | 1583 ft | 150 kts | 133° |
| 2026-05-04 17:56 | 57.11921 | -135.49706 | 1293 ft | 147 kts | 134° |
| 2026-05-04 17:56 | 57.11213 | -135.48386 | 1031 ft | 144 kts | 135° |
| 2026-05-04 17:57 | 57.10607 | -135.47263 | 774 ft | 148 kts | 135° |
| 2026-05-04 17:57 | 57.09862 | -135.45880 | 606 ft | 157 kts | 134° |
| 2026-05-04 17:57 | 57.09088 | -135.44439 | 622 ft | 156 kts | 134° |
| 2026-05-04 17:57 | 57.08337 | -135.43043 | 745 ft | 152 kts | 134° |
| 2026-05-04 17:58 | 57.07692 | -135.41847 | 725 ft | 158 kts | 134° |
| 2026-05-04 17:58 | 57.06948 | -135.40343 | 667 ft | 158 kts | 130° |
| 2026-05-04 17:58 | 57.06285 | -135.38846 | 403 ft | 142 kts | 130° |
| 2026-05-04 17:58 | 57.05638 | -135.37672 | 31 ft | 126 kts | 136° |
| 2026-05-04 17:59 | 57.04625 | -135.35891 | 47 ft | 197 kts | 136° |
| 2026-05-04 17:59 | 57.03729 | -135.34342 | 321 ft | 159 kts | 140° |
| 2026-05-04 17:59 | 57.01882 | -135.32529 | 1774 ft | 143 kts | 173° |
| 2026-05-04 18:00 | 57.01114 | -135.32628 | 2672 ft | 136 kts | 187° |
| 2026-05-04 18:00 | 56.99932 | -135.33123 | 2236 ft | 218 kts | 194° |
| 2026-05-04 18:00 | 56.98353 | -135.34076 | 2482 ft | 235 kts | 202° |
| 2026-05-04 18:00 | 56.96907 | -135.35402 | 3172 ft | 242 kts | 210° |
| 2026-05-04 18:01 | 56.95805 | -135.37194 | 3425 ft | 255 kts | 230° |
| 2026-05-04 18:01 | 56.94836 | -135.40057 | 3603 ft | 277 kts | 242° |
| 2026-05-04 18:01 | 56.93944 | -135.43336 | 3607 ft | 294 kts | 246° |
| 2026-05-04 18:02 | 56.92019 | -135.49416 | 3598 ft | 304 kts | 232° |
| 2026-05-04 18:02 | 56.90479 | -135.52099 | 3615 ft | 306 kts | 223° |
| 2026-05-04 18:02 | 56.89136 | -135.55028 | 3591 ft | 304 kts | 238° |
| 2026-05-04 18:02 | 56.88363 | -135.58499 | 3587 ft | 282 kts | 256° |
| 2026-05-04 18:03 | 56.88251 | -135.61416 | 3582 ft | 257 kts | 274° |
| 2026-05-04 18:03 | 56.88720 | -135.64369 | 3580 ft | 232 kts | 297° |
| 2026-05-04 18:03 | 56.89702 | -135.66476 | 3571 ft | 205 kts | 322° |
| 2026-05-04 18:03 | 56.90941 | -135.67374 | 3564 ft | 183 kts | 351° |
| 2026-05-04 18:04 | 56.91952 | -135.67178 | 3581 ft | 169 kts | 12° |
| 2026-05-04 18:04 | 56.93020 | -135.66460 | 3584 ft | 159 kts | 21° |
| 2026-05-04 18:04 | 56.95056 | -135.65249 | 3416 ft | 155 kts | 9° |
| 2026-05-04 18:05 | 56.95942 | -135.64974 | 3327 ft | 155 kts | 9° |
| 2026-05-04 18:05 | 56.96988 | -135.64638 | 3272 ft | 152 kts | 8° |
| 2026-05-04 18:05 | 56.98042 | -135.64501 | 3133 ft | 154 kts | 1° |
| 2026-05-04 18:05 | 56.99115 | -135.64561 | 3032 ft | 153 kts | 357° |
| 2026-05-04 18:06 | 57.01025 | -135.65469 | 2814 ft | 154 kts | 339° |
| 2026-05-04 18:06 | 57.02016 | -135.66198 | 2727 ft | 153 kts | 346° |
| 2026-05-04 18:06 | 57.03112 | -135.66081 | 2394 ft | 166 kts | 14° |
| 2026-05-04 18:07 | 57.04006 | -135.65430 | 2438 ft | 155 kts | 22° |
| 2026-05-04 18:07 | 57.04969 | -135.64595 | 2518 ft | 156 kts | 25° |
| 2026-05-04 18:07 | 57.05981 | -135.63722 | 2535 ft | 163 kts | 24° |
| 2026-05-04 18:07 | 57.07009 | -135.62888 | 2715 ft | 160 kts | 22° |
| 2026-05-04 18:08 | 57.07997 | -135.62007 | 2837 ft | 161 kts | 32° |
| 2026-05-04 18:08 | 57.08699 | -135.60330 | 2653 ft | 169 kts | 64° |
| 2026-05-04 18:08 | 57.08923 | -135.58333 | 2714 ft | 151 kts | 81° |
| 2026-05-04 18:08 | 57.08979 | -135.56435 | 2654 ft | 153 kts | 86° |
| 2026-05-04 18:09 | 57.08936 | -135.52610 | 2141 ft | 169 kts | 91° |
| 2026-05-04 18:09 | 57.08726 | -135.48329 | 1729 ft | 164 kts | 94° |
| 2026-05-04 18:10 | 57.08654 | -135.46567 | 1493 ft | 166 kts | 93° |
| 2026-05-04 18:10 | 57.08511 | -135.44455 | 1214 ft | 165 kts | 99° |
| 2026-05-04 18:10 | 57.08230 | -135.42487 | 927 ft | 154 kts | 108° |
| 2026-05-04 18:10 | 57.07750 | -135.40804 | 684 ft | 140 kts | 124° |
| 2026-05-04 18:11 | 57.07216 | -135.39686 | 457 ft | 139 kts | 133° |
| 2026-05-04 18:11 | 57.06448 | -135.38504 | 266 ft | 150 kts | 144° |
| 2026-05-04 18:11 | 57.05516 | -135.37491 | 172 ft | 166 kts | 146° |
| 2026-05-04 18:11 | 57.04710 | -135.36139 | 37 ft | 137 kts | 137° |
| 2026-05-04 18:12 | 57.04216 | -135.35221 | 37 ft | 97 kts | 129° |
| 2026-05-04 18:12 | 57.03898 | -135.34745 | 22 ft | 33 kts | 172° |
| 2026-05-04 18:12 | 57.02553 | -135.35071 | 17 ft | 185 kts | 200° |
| 2026-05-04 18:12 | 57.01146 | -135.36023 | 123 ft | 210 kts | 190° |
| 2026-05-04 18:13 | 57.00206 | -135.35330 | 730 ft | 166 kts | 126° |
| 2026-05-04 18:13 | 57.00183 | -135.33512 | 290 ft | 145 kts | 64° |
| 2026-05-04 18:13 | 57.02192 | -135.32335 | 437 ft | 162 kts | 341° |
| 2026-05-04 18:14 | 57.03055 | -135.33143 | 319 ft | 159 kts | 329° |
| 2026-05-04 18:14 | 57.03855 | -135.34499 | 154 ft | 150 kts | 315° |
| 2026-05-04 18:14 | 57.04461 | -135.35729 | 37 ft | 103 kts | 318° |
| 2026-05-04 18:15 | 57.04789 | -135.36253 | 37 ft | 13 kts | 333° |
| 2026-05-04 18:15 | 57.04931 | -135.36330 | 37 ft | 5 kts | 18° |
| 2026-05-04 18:15 | 57.04986 | -135.36286 | 37 ft | 11 kts | 26° |
| 2026-05-04 18:16 | 57.05003 | -135.36269 | 37 ft | 0 kts | 36° |
| 2026-05-04 18:16 | 57.05005 | -135.36266 | 37 ft | 1 kts | 43° |
| 2026-05-04 18:16 | 57.05010 | -135.36248 | 37 ft | 0 kts | 58° |
| 2026-05-04 18:17 | 57.05023 | -135.36220 | 37 ft | 1 kts | 44° |
| 2026-05-04 18:17 | 57.05021 | -135.36225 | 37 ft | 0 kts | 44° |
| 2026-05-04 18:20 | 61.17283 | -149.94726 | 152 ft | 0 kts | 0° |